Time;durP1;ratioP1;P1;durP2;ratioP2;P2;SDS_P1;SDS_P2;PMS_P1;PMS_P2;Temp;Humidity;BMP_temperature;BMP_pressure;BME280_temperature;BME280_humidity;BME280_pressure;Samples;Min_cycle;Max_cycle;Signal;HPM_P1;HPM_P2
2023/01/10 00:02:02;;;;;;;33.60;20.40;;;6.80;99.90;;;6.54;82.87;99314.53;5144886;27;20208;-68
2023/01/10 00:04:30;;;;;;;36.07;20.50;;;6.80;99.90;;;6.57;83.06;99317.06;5137243;28;20208;-69
2023/01/10 00:06:59;;;;;;;36.63;20.97;;;6.80;99.90;;;6.54;82.49;99325.59;5137209;27;20210;-68
2023/01/10 00:09:29;;;;;;;36.60;20.60;;;6.70;99.90;;;6.53;82.92;99317.97;5140598;27;20180;-69
2023/01/10 00:14:43;;;;;;;39.73;22.10;;;6.70;99.90;;;6.54;83.34;99333.28;5138504;27;20180;-68
2023/01/10 00:17:11;;;;;;;37.43;21.03;;;6.70;99.90;;;6.55;83.22;99334.13;5142637;27;20206;-68
2023/01/10 00:19:40;;;;;;;40.70;22.13;;;6.70;99.90;;;6.56;82.88;99346.09;5136464;27;20199;-68
2023/01/10 00:22:12;;;;;;;38.53;22.40;;;6.70;99.90;;;6.55;83.42;99354.59;5136819;27;20184;-68
2023/01/10 00:24:42;;;;;;;39.10;22.20;;;6.80;99.90;;;6.55;83.54;99354.59;5146790;27;20196;-69
2023/01/10 00:27:15;;;;;;;39.87;21.50;;;6.70;99.90;;;6.59;83.43;99363.13;5136349;28;20180;-68
2023/01/10 00:29:44;;;;;;;43.00;22.57;;;6.70;99.90;;;6.59;83.22;99366.56;5136482;27;20176;-67
2023/01/10 00:32:12;;;;;;;39.63;21.73;;;6.70;99.90;;;6.60;83.04;99368.25;5134174;28;20196;-67
2023/01/10 00:34:41;;;;;;;41.13;21.20;;;6.80;99.90;;;6.61;83.28;99369.09;5139253;27;20204;-67
2023/01/10 00:37:09;;;;;;;39.87;21.13;;;6.80;99.90;;;6.63;82.86;99369.91;5135292;27;20215;-69
2023/01/10 00:39:37;;;;;;;37.27;22.10;;;6.80;99.90;;;6.62;82.99;99379.31;5143414;27;20191;-68
2023/01/10 00:44:53;;;;;;;38.30;21.00;;;6.70;99.90;;;6.63;83.45;99377.59;5136065;27;20213;-68
2023/01/10 00:47:21;;;;;;;38.37;21.13;;;6.80;99.90;;;6.65;82.87;99379.28;5135390;28;20191;-70
2023/01/10 00:49:50;;;;;;;42.37;21.73;;;6.80;99.90;;;6.66;83.12;99387.81;5136196;28;20219;-67
2023/01/10 00:52:18;;;;;;;35.90;20.70;;;6.80;99.90;;;6.67;82.51;99395.50;5138300;27;20192;-69
2023/01/10 00:54:46;;;;;;;37.77;21.50;;;6.80;99.90;;;6.68;82.98;99391.22;5139266;27;20237;-69
2023/01/10 00:57:16;;;;;;;39.77;21.30;;;6.80;99.90;;;6.68;82.98;99397.19;5140692;27;20308;-68
2023/01/10 00:59:45;;;;;;;39.97;20.70;;;6.80;99.90;;;6.69;82.60;99396.31;5139842;27;20208;-68
2023/01/10 01:02:13;;;;;;;37.43;21.90;;;6.80;99.90;;;6.67;82.86;99392.94;5138441;27;20187;-70
2023/01/10 01:04:42;;;;;;;40.03;21.77;;;6.80;99.90;;;6.68;83.11;99404.88;5141348;27;20215;-68
2023/01/10 01:07:10;;;;;;;40.97;22.87;;;6.70;99.90;;;6.67;82.42;99408.31;5136547;27;20187;-69
2023/01/10 01:10:25;;;;;;;45.53;21.57;;;6.80;99.90;;;6.66;82.77;99416.81;5138604;27;20192;-69
2023/01/10 01:12:28;;;;;;;42.63;23.03;;;6.80;99.90;;;6.64;82.48;99410.88;5128987;27;20233;-67
2023/01/10 01:14:57;;;;;;;41.30;21.80;;;6.80;99.90;;;6.63;82.41;99408.31;5134861;28;20320;-68
2023/01/10 01:17:25;;;;;;;43.87;23.70;;;6.80;99.90;;;6.63;82.70;99421.09;5144782;27;20229;-68
2023/01/10 01:19:53;;;;;;;40.53;21.57;;;6.80;99.90;;;6.62;82.86;99420.25;5139369;27;20245;-69
2023/01/10 01:22:22;;;;;;;41.60;22.13;;;6.80;99.90;;;6.60;82.73;99422.00;5134652;28;20255;-69
2023/01/10 01:24:50;;;;;;;42.23;22.00;;;6.80;99.90;;;6.59;83.57;99419.44;5132936;28;20241;-69
2023/01/10 01:27:19;;;;;;;40.77;23.27;;;6.70;99.90;;;6.59;83.13;99420.31;5135366;28;20226;-70
2023/01/10 01:29:49;;;;;;;40.83;22.20;;;6.70;99.90;;;6.57;83.00;99416.88;5139244;27;20180;-68
2023/01/10 01:32:17;;;;;;;42.43;22.50;;;6.80;99.90;;;6.58;83.11;99426.25;5138236;27;20200;-69
2023/01/10 01:34:46;;;;;;;43.07;22.77;;;6.70;99.90;;;6.60;82.91;99436.50;5136308;27;20265;-69
2023/01/10 01:37:15;;;;;;;42.57;22.67;;;6.80;99.90;;;6.59;83.91;99438.22;5127646;28;20204;-68
2023/01/10 01:39:45;;;;;;;40.30;22.93;;;6.70;99.90;;;6.58;83.79;99433.94;5134597;28;20213;-68
2023/01/10 01:42:24;;;;;;;42.83;23.87;;;6.80;99.90;;;6.61;83.11;99441.59;5138885;27;20196;-67
2023/01/10 01:45:33;;;;;;;45.27;24.80;;;6.80;99.90;;;6.64;83.33;99439.03;5137995;28;20196;-68
2023/01/10 01:48:28;;;;;;;45.23;24.90;;;6.80;99.90;;;6.64;82.98;99441.59;5138395;27;20184;-69
2023/01/10 01:51:04;;;;;;;43.67;23.33;;;6.80;99.90;;;6.62;82.99;99440.75;5132802;28;20221;-68
2023/01/10 01:53:38;;;;;;;43.73;23.60;;;6.80;99.90;;;6.64;83.62;99444.16;5143870;28;20179;-69
2023/01/10 01:56:13;;;;;;;45.23;23.97;;;6.80;99.90;;;6.63;83.17;99451.81;5135539;28;20218;-68
2023/01/10 01:58:48;;;;;;;41.97;24.57;;;6.80;99.90;;;6.65;83.45;99450.97;5124172;28;20473;-68
2023/01/10 02:01:18;;;;;;;42.03;22.63;;;6.80;99.90;;;6.64;83.49;99441.59;5142592;28;20236;-69
2023/01/10 02:03:53;;;;;;;46.67;24.00;;;6.80;99.90;;;6.62;83.55;99443.28;5142329;28;20191;-69
2023/01/10 02:06:25;;;;;;;41.63;23.80;;;6.80;99.90;;;6.61;83.33;99454.41;5134517;28;20222;-69
2023/01/10 02:09:03;;;;;;;43.73;24.30;;;6.80;99.90;;;6.61;83.19;99459.53;5123025;28;20199;-69
2023/01/10 02:11:31;;;;;;;45.97;24.30;;;6.80;99.90;;;6.61;83.93;99463.78;5134047;28;20199;-69
2023/01/10 02:14:02;;;;;;;49.30;24.70;;;6.80;99.90;;;6.63;83.54;99467.19;5148790;27;20237;-69
2023/01/10 02:16:32;;;;;;;49.97;24.50;;;6.80;99.90;;;6.62;83.38;99468.03;5148426;27;20200;-68
2023/01/10 02:19:00;;;;;;;50.87;25.80;;;6.80;99.90;;;6.63;83.89;99462.06;5143500;27;20191;-68
2023/01/10 02:21:58;;;;;;;46.53;24.23;;;6.80;99.90;;;6.64;83.42;99474.03;5136025;27;20239;-68
2023/01/10 02:25:10;;;;;;;47.77;25.07;;;6.80;99.90;;;6.66;83.28;99478.25;5135601;27;20229;-68
2023/01/10 02:28:01;;;;;;;48.50;25.40;;;6.80;99.90;;;6.69;83.28;99475.69;5137592;28;20180;-68
2023/01/10 02:31:00;;;;;;;47.90;25.33;;;6.80;99.90;;;6.70;83.39;99477.41;5140968;27;20180;-67
2023/01/10 02:33:33;;;;;;;47.27;25.00;;;6.80;99.90;;;6.71;83.59;99476.53;5140130;27;20187;-69
2023/01/10 02:36:29;;;;;;;48.53;25.17;;;6.80;99.90;;;6.70;83.34;99477.41;5141468;27;20196;-71
2023/01/10 02:39:04;;;;;;;43.73;23.83;;;6.80;99.90;;;6.71;83.07;99478.25;5137089;27;20196;-69
2023/01/10 02:41:42;;;;;;;47.57;25.30;;;6.90;99.90;;;6.71;83.42;99476.53;5137470;27;20176;-68
2023/01/10 02:44:21;;;;;;;42.13;24.27;;;6.90;99.90;;;6.72;83.50;99478.25;5140675;27;20184;-68
2023/01/10 02:46:50;;;;;;;47.77;24.23;;;6.90;99.90;;;6.72;83.57;99482.50;5140611;27;20196;-69
2023/01/10 02:49:20;;;;;;;47.07;25.23;;;6.90;99.90;;;6.72;82.98;99478.25;5138086;28;20187;-69
2023/01/10 02:51:48;;;;;;;49.90;24.93;;;6.90;99.90;;;6.71;83.04;99484.22;5135013;28;20188;-68
2023/01/10 02:54:22;;;;;;;45.43;24.47;;;6.80;99.90;;;6.72;82.65;99477.38;5143167;27;20196;-67
2023/01/10 02:57:16;;;;;;;41.90;24.43;;;6.90;99.90;;;6.70;82.71;99481.66;5139505;27;20187;-68
2023/01/10 03:00:23;;;;;;;43.17;23.73;;;6.90;99.90;;;6.68;83.00;99484.22;5141997;27;20208;-69
2023/01/10 03:03:18;;;;;;;42.93;23.20;;;6.90;99.90;;;6.68;82.92;99491.91;5136687;27;20203;-68
2023/01/10 03:06:06;;;;;;;44.03;23.17;;;6.80;99.90;;;6.68;83.48;99486.78;5143347;27;20196;-68
2023/01/10 03:08:40;;;;;;;41.23;22.50;;;6.90;99.90;;;6.68;83.24;99491.91;5137499;28;20199;-68
2023/01/10 03:11:11;;;;;;;45.73;24.33;;;6.80;99.90;;;6.68;83.24;99491.91;5125947;27;20197;-68
2023/01/10 03:13:46;;;;;;;41.67;22.97;;;6.90;99.90;;;6.70;83.26;99494.44;5137642;27;20262;-68
2023/01/10 03:16:28;;;;;;;36.67;22.30;;;6.90;99.90;;;6.69;83.06;99501.28;5124578;28;20172;-69
2023/01/10 03:19:01;;;;;;;40.20;23.30;;;6.90;99.90;;;6.68;82.53;99499.59;5131089;28;20172;-68
2023/01/10 03:21:33;;;;;;;43.27;23.53;;;6.80;99.90;;;6.67;82.69;99499.63;5137002;27;20216;-69
2023/01/10 03:24:08;;;;;;;44.03;24.37;;;6.90;99.90;;;6.67;83.26;99499.63;5137866;28;20261;-69
2023/01/10 03:26:47;;;;;;;42.07;23.50;;;6.90;99.90;;;6.64;82.73;99500.47;5137835;28;20237;-67
2023/01/10 03:29:24;;;;;;;40.33;23.67;;;6.80;99.90;;;6.64;83.28;99500.47;5135505;27;20221;-68
2023/01/10 03:32:00;;;;;;;41.50;23.90;;;6.80;99.90;;;6.65;83.00;99504.72;5135551;28;20192;-68
2023/01/10 03:34:31;;;;;;;42.20;24.37;;;6.80;99.90;;;6.67;82.63;99514.97;5141204;27;20228;-68
2023/01/10 03:37:09;;;;;;;43.57;23.40;;;6.80;99.90;;;6.67;82.50;99514.97;5137970;28;20187;-70
2023/01/10 03:39:50;;;;;;;44.00;24.20;;;6.80;99.90;;;6.67;83.17;99515.81;5136065;27;20168;-68
2023/01/10 03:44:42;;;;;;;39.13;23.97;;;6.80;99.90;;;6.67;82.43;99515.81;5137195;27;20212;-68
2023/01/10 03:45:26;;;;;;;42.40;23.37;;;6.80;99.90;;;6.69;82.98;99515.81;5135592;28;20191;-68
2023/01/10 03:47:58;;;;;;;42.50;24.10;;;6.80;99.90;;;6.68;82.74;99517.50;5137120;28;20288;-68
2023/01/10 03:50:29;;;;;;;38.97;22.63;;;6.90;99.90;;;6.68;82.48;99521.78;5131928;28;20183;-69
2023/01/10 03:52:59;;;;;;;43.63;23.17;;;6.80;99.90;;;6.66;82.82;99526.91;5133756;28;20387;-68
2023/01/10 03:55:29;;;;;;;39.77;23.17;;;6.80;99.90;;;6.66;82.33;99529.47;5138025;27;20191;-69
2023/01/10 03:57:58;;;;;;;40.50;22.93;;;6.80;99.90;;;6.67;82.87;99530.34;5136999;28;20208;-68
2023/01/10 04:00:26;;;;;;;37.37;22.37;;;6.80;99.90;;;6.66;82.69;99534.56;5136894;27;20204;-69
2023/01/10 04:02:57;;;;;;;40.77;22.37;;;6.80;99.90;;;6.66;82.78;99534.56;5136995;27;20188;-68
2023/01/10 04:05:25;;;;;;;41.90;23.07;;;6.80;99.90;;;6.66;82.62;99544.81;5141258;27;20180;-68
2023/01/10 04:07:53;;;;;;;41.57;23.67;;;6.80;99.90;;;6.65;83.08;99545.69;5145127;27;20231;-69
2023/01/10 04:10:25;;;;;;;42.53;23.53;;;6.80;99.90;;;6.67;83.26;99545.69;5145251;27;20295;-70
2023/01/10 04:12:54;;;;;;;40.50;22.77;;;6.80;99.90;;;6.69;82.68;99555.03;5137493;28;20184;-69
2023/01/10 04:15:22;;;;;;;47.67;24.00;;;6.80;99.90;;;6.71;82.62;99560.19;5140204;27;20730;-68
2023/01/10 04:17:51;;;;;;;45.83;24.07;;;6.80;99.90;;;6.74;82.52;99560.19;5136752;28;20199;-68
2023/01/10 04:20:19;;;;;;;41.90;23.00;;;6.80;99.90;;;6.72;83.02;99567.84;5135560;28;20219;-67
2023/01/10 04:22:50;;;;;;;42.60;23.10;;;6.90;99.90;;;6.72;83.08;99567.84;5136156;28;20200;-68
2023/01/10 04:25:18;;;;;;;41.40;23.93;;;6.80;99.90;;;6.72;82.74;99575.53;5137096;28;20191;-69
2023/01/10 04:27:49;;;;;;;46.03;24.83;;;6.90;99.90;;;6.72;83.05;99577.25;5127577;28;20255;-69
2023/01/10 04:30:18;;;;;;;47.50;24.27;;;6.90;99.90;;;6.75;81.97;99579.78;5136791;28;20196;-69
2023/01/10 04:32:47;;;;;;;40.73;23.23;;;6.90;99.90;;;6.75;82.80;99584.91;5135358;28;20187;-67
2023/01/10 04:35:16;;;;;;;48.07;24.77;;;6.90;99.90;;;6.74;82.60;99581.50;5144133;27;20208;-68
2023/01/10 04:37:44;;;;;;;43.37;22.63;;;6.90;99.90;;;6.76;82.15;99584.91;5140734;27;20194;-68
2023/01/10 04:40:15;;;;;;;46.30;23.97;;;6.90;99.90;;;6.77;82.58;99583.19;5136024;27;20192;-69
2023/01/10 04:42:44;;;;;;;45.27;24.33;;;6.90;99.90;;;6.77;81.89;99588.31;5137009;28;20203;-69
2023/01/10 04:45:16;;;;;;;45.67;24.00;;;6.90;99.90;;;6.77;82.38;99599.41;5139611;27;20184;-69
2023/01/10 04:47:50;;;;;;;49.10;24.60;;;6.90;99.90;;;6.76;82.27;99599.41;5135283;28;20196;-68
2023/01/10 04:50:19;;;;;;;42.23;24.53;;;6.90;99.90;;;6.76;82.46;99610.50;5133401;28;20184;-69
2023/01/10 04:52:47;;;;;;;46.90;23.90;;;6.90;99.90;;;6.76;82.51;99618.19;5137298;27;20224;-69
2023/01/10 04:55:16;;;;;;;46.70;23.37;;;6.80;99.90;;;6.75;82.49;99616.47;5140331;27;20208;-69
2023/01/10 04:57:44;;;;;;;43.40;23.93;;;6.90;99.90;;;6.76;82.17;99633.53;5136679;28;20204;-68
2023/01/10 05:00:14;;;;;;;45.17;24.57;;;6.90;99.90;;;6.77;82.36;99631.81;5139447;27;20192;-68
2023/01/10 05:02:43;;;;;;;46.90;24.00;;;6.90;99.90;;;6.75;81.75;99641.25;5133609;27;20206;-68
2023/01/10 05:05:12;;;;;;;42.00;24.13;;;6.90;99.90;;;6.75;82.19;99636.97;5135444;28;20187;-68
2023/01/10 05:07:41;;;;;;;45.70;24.10;;;6.90;99.90;;;6.73;81.88;99646.34;5135825;28;20249;-68
2023/01/10 05:10:11;;;;;;;44.17;23.30;;;6.90;99.90;;;6.74;82.36;99655.75;5137013;27;20206;-70
2023/01/10 05:12:40;;;;;;;43.17;22.97;;;6.80;99.90;;;6.71;82.26;99653.19;5135241;28;20230;-69
2023/01/10 05:15:09;;;;;;;44.73;23.63;;;6.90;99.90;;;6.73;81.80;99659.16;5136531;27;20188;-69
2023/01/10 05:17:39;;;;;;;50.97;25.40;;;6.80;99.90;;;6.75;82.33;99672.81;5136139;28;20270;-69
2023/01/10 05:20:10;;;;;;;46.23;24.17;;;6.90;99.90;;;6.74;81.96;99673.69;5134551;28;20220;-70
2023/01/10 05:22:38;;;;;;;45.00;24.13;;;6.90;99.90;;;6.75;81.61;99677.94;5138420;27;20369;-68
2023/01/10 05:25:08;;;;;;;47.20;23.90;;;6.90;99.90;;;6.75;81.88;99677.09;5140042;27;20237;-69
2023/01/10 05:27:40;;;;;;;47.40;25.03;;;6.90;99.90;;;6.76;81.51;99679.63;5138035;27;20199;-68
2023/01/10 05:30:12;;;;;;;41.77;23.53;;;6.90;99.90;;;6.77;81.35;99683.03;5143291;27;20187;-69
2023/01/10 05:32:42;;;;;;;45.07;24.27;;;6.90;99.90;;;6.75;81.53;99693.28;5141588;27;20196;-69
2023/01/10 05:35:10;;;;;;;43.63;22.47;;;6.90;99.90;;;6.72;81.56;99690.75;5135267;28;20184;-70
2023/01/10 05:37:39;;;;;;;44.73;23.07;;;6.90;99.90;;;6.72;82.10;99703.53;5137286;27;20199;-69
2023/01/10 05:40:10;;;;;;;40.73;22.60;;;6.90;99.90;;;6.70;81.84;99695.03;5141103;27;20242;-69
2023/01/10 05:42:38;;;;;;;43.47;23.80;;;6.80;99.90;;;6.69;82.25;99713.78;5137878;27;20187;-68
2023/01/10 05:45:08;;;;;;;47.10;22.70;;;6.80;99.90;;;6.68;81.56;99706.13;5141744;27;20199;-68
2023/01/10 05:47:36;;;;;;;40.93;22.67;;;6.80;99.90;;;6.69;81.48;99718.91;5129662;28;20220;-69
2023/01/10 05:50:07;;;;;;;49.33;24.53;;;6.90;99.90;;;6.68;81.48;99719.75;5133819;28;20210;-69
2023/01/10 05:52:36;;;;;;;44.17;23.10;;;6.90;99.90;;;6.66;81.57;99728.28;5146088;28;20187;-68
2023/01/10 05:55:05;;;;;;;45.40;23.83;;;6.80;99.90;;;6.65;81.36;99730.00;5139725;28;20196;-67
2023/01/10 05:57:33;;;;;;;45.17;24.03;;;6.80;99.90;;;6.64;81.83;99735.97;5133897;28;20211;-69
2023/01/10 06:00:02;;;;;;;48.87;23.67;;;6.80;99.90;;;6.64;81.64;99735.97;5132602;28;20203;-69
2023/01/10 06:02:32;;;;;;;39.63;21.97;;;6.80;99.90;;;6.65;81.44;99747.91;5133577;28;20207;-70
2023/01/10 06:05:01;;;;;;;42.43;22.67;;;6.80;99.90;;;6.66;81.29;99749.63;5126774;28;20187;-69
2023/01/10 06:07:31;;;;;;;42.30;22.13;;;6.80;99.90;;;6.67;81.84;99761.59;5139575;28;20277;-69
2023/01/10 06:09:59;;;;;;;44.77;23.20;;;6.80;99.90;;;6.66;81.99;99759.00;5132408;28;20186;-69
2023/01/10 06:12:27;;;;;;;41.13;21.90;;;6.80;99.90;;;6.65;81.26;99762.44;5132415;28;20199;-66
2023/01/10 06:14:56;;;;;;;49.10;22.63;;;6.80;99.90;;;6.64;81.32;99769.25;5130936;28;20203;-69
2023/01/10 06:17:24;;;;;;;41.47;22.50;;;6.80;99.90;;;6.64;81.42;99771.81;5126258;28;20184;-69
2023/01/10 06:19:52;;;;;;;43.53;22.23;;;6.80;99.90;;;6.66;81.91;99771.81;5138048;28;20226;-68
2023/01/10 06:22:21;;;;;;;44.87;24.20;;;6.80;99.90;;;6.66;81.64;99782.06;5135018;28;20280;-69
2023/01/10 06:24:51;;;;;;;44.90;25.03;;;6.80;99.90;;;6.66;81.83;99788.03;5132624;28;20184;-70
2023/01/10 06:27:19;;;;;;;41.50;23.40;;;6.90;99.90;;;6.65;81.75;99794.00;5137421;28;20223;-69
2023/01/10 06:29:49;;;;;;;44.83;22.87;;;6.80;99.90;;;6.64;81.72;99791.47;5118323;28;20184;-72
2023/01/10 06:32:17;;;;;;;43.43;23.50;;;6.80;99.90;;;6.63;81.68;99799.97;5122032;28;20258;-69
2023/01/10 06:34:45;;;;;;;49.60;25.47;;;6.80;99.90;;;6.62;81.84;99800.81;5120746;28;20203;-69
2023/01/10 06:37:14;;;;;;;48.10;25.47;;;6.80;99.90;;;6.62;81.51;99814.47;5131556;28;20199;-69
2023/01/10 06:39:42;;;;;;;52.43;25.73;;;6.80;99.90;;;6.64;81.51;99820.47;5119714;28;20203;-69
2023/01/10 06:42:12;;;;;;;44.43;24.20;;;6.80;99.90;;;6.64;82.12;99822.19;5115787;28;20257;-71
2023/01/10 06:44:40;;;;;;;50.13;25.43;;;6.80;99.90;;;6.65;81.40;99823.88;5105275;28;20200;-69
2023/01/10 06:47:08;;;;;;;47.40;24.87;;;6.80;99.90;;;6.66;81.24;99821.31;5118103;28;20234;-68
2023/01/10 06:49:37;;;;;;;44.80;24.40;;;6.80;99.90;;;6.67;81.52;99817.06;5126963;28;20200;-67
2023/01/10 06:52:05;;;;;;;43.83;23.70;;;6.80;99.90;;;6.69;81.67;99821.31;5123384;28;20199;-69
2023/01/10 06:54:34;;;;;;;44.80;23.97;;;6.80;99.90;;;6.70;81.08;99830.72;5117720;28;20645;-70
2023/01/10 06:57:02;;;;;;;47.00;24.00;;;6.90;99.90;;;6.68;81.53;99834.97;5121935;28;20222;-68
2023/01/10 06:59:32;;;;;;;45.70;24.17;;;6.80;99.90;;;6.71;81.79;99846.94;5118085;27;20245;-67
2023/01/10 07:02:00;;;;;;;43.10;23.57;;;6.90;99.90;;;6.71;80.77;99845.22;5125491;27;20549;-66
2023/01/10 07:04:29;;;;;;;41.70;23.80;;;6.90;99.90;;;6.71;81.03;99840.09;5109788;27;20255;-68
2023/01/10 07:06:57;;;;;;;41.37;22.80;;;6.80;99.90;;;6.72;81.41;99846.91;5112451;27;20208;-70
2023/01/10 07:09:26;;;;;;;41.77;23.10;;;6.90;99.90;;;6.71;81.35;99847.78;5111991;28;20207;-71
2023/01/10 07:11:54;;;;;;;40.83;23.57;;;6.90;99.90;;;6.71;80.74;99855.47;5112544;28;20253;-69
2023/01/10 07:14:23;;;;;;;42.90;23.90;;;6.90;99.90;;;6.71;80.62;99855.47;5112345;27;20207;-70
2023/01/10 07:16:54;;;;;;;42.07;24.10;;;6.80;99.90;;;6.73;80.60;99853.75;5100275;28;20538;-69
2023/01/10 07:19:23;;;;;;;42.10;23.43;;;6.90;99.90;;;6.74;81.13;99857.19;5110006;28;20196;-68
2023/01/10 07:21:51;;;;;;;39.43;22.67;;;6.80;99.90;;;6.75;81.08;99857.16;5109285;28;20231;-69
2023/01/10 07:24:20;;;;;;;43.43;23.47;;;6.90;99.90;;;6.76;80.83;99866.56;5113255;28;20208;-71
2023/01/10 07:26:48;;;;;;;44.47;23.77;;;7.00;99.90;;;6.79;80.76;99863.16;5103726;28;20205;-70
2023/01/10 07:29:16;;;;;;;42.23;22.60;;;6.90;99.90;;;6.82;80.37;99862.31;5115796;27;20281;-70
2023/01/10 07:31:45;;;;;;;40.23;24.27;;;6.90;99.90;;;6.80;81.04;99853.75;5122900;27;20242;-70
2023/01/10 07:34:15;;;;;;;42.50;24.63;;;6.90;99.90;;;6.80;80.73;99864.00;5106827;27;20420;-68
2023/01/10 07:36:43;;;;;;;42.93;23.73;;;6.90;99.90;;;6.80;80.61;99861.44;5124202;27;20660;-70
2023/01/10 07:39:12;;;;;;;43.87;24.00;;;6.90;99.90;;;6.80;80.92;99871.69;5109597;28;20204;-71
2023/01/10 07:41:40;;;;;;;40.57;24.97;;;6.90;99.90;;;6.80;81.04;99869.97;5110053;28;20226;-70
2023/01/10 07:44:09;;;;;;;41.60;23.30;;;6.90;99.90;;;6.79;80.97;99863.16;5115494;27;20211;-70
2023/01/10 07:46:37;;;;;;;43.27;24.00;;;6.90;99.90;;;6.77;80.43;99870.84;5105591;28;20688;-68
2023/01/10 07:49:06;;;;;;;43.73;24.37;;;6.90;99.90;;;6.77;80.98;99873.41;5111710;28;20233;-69
2023/01/10 07:51:36;;;;;;;42.87;23.90;;;7.00;99.90;;;6.80;80.92;99879.34;5109842;28;20290;-68
2023/01/10 07:54:04;;;;;;;42.23;22.93;;;6.90;99.90;;;6.82;80.56;99882.78;5108906;27;20617;-73
2023/01/10 07:56:33;;;;;;;40.17;24.83;;;6.90;99.90;;;6.82;81.00;99878.53;5109615;27;20203;-72
2023/01/10 07:59:01;;;;;;;46.17;25.13;;;6.90;99.90;;;6.85;80.89;99886.22;5109819;27;20837;-71
2023/01/10 08:01:31;;;;;;;45.63;25.00;;;7.00;99.90;;;6.86;80.29;99885.34;5120404;27;20306;-75
2023/01/10 08:03:59;;;;;;;44.90;25.10;;;7.00;99.90;;;6.88;80.90;99882.78;5108569;28;20659;-73
2023/01/10 08:06:28;;;;;;;37.00;21.57;;;7.00;99.90;;;6.88;80.71;99883.63;5111660;28;20208;-72
2023/01/10 08:09:02;;;;;;;45.83;24.60;;;7.00;99.90;;;6.84;80.43;99892.16;5111507;28;20277;-73
2023/01/10 08:11:31;;;;;;;39.57;22.03;;;7.00;99.90;;;6.82;80.44;99891.31;5114336;27;20204;-71
2023/01/10 08:13:59;;;;;;;40.83;22.40;;;7.00;99.90;;;6.77;80.57;99906.69;5093174;28;20200;-71
2023/01/10 08:16:28;;;;;;;37.93;22.53;;;7.00;99.90;;;6.81;80.43;99901.53;5117243;27;21590;-74
2023/01/10 08:18:56;;;;;;;32.20;20.40;;;6.90;99.90;;;6.78;80.03;99900.72;5107618;27;20204;-68
2023/01/10 08:21:25;;;;;;;34.47;20.87;;;7.00;99.90;;;6.78;79.78;99910.09;5106573;27;20247;-69
2023/01/10 08:23:54;;;;;;;31.63;19.50;;;6.90;99.90;;;6.75;80.35;99918.63;5121868;27;20203;-70
2023/01/10 08:26:24;;;;;;;34.87;19.87;;;6.90;99.90;;;6.71;80.08;99923.75;5110044;27;20569;-70
2023/01/10 08:28:53;;;;;;;33.63;20.20;;;6.90;99.90;;;6.68;80.01;99927.13;5108481;27;20257;-68
2023/01/10 08:31:21;;;;;;;30.00;18.63;;;6.80;99.90;;;6.63;80.57;99923.72;5112481;27;20747;-69
2023/01/10 08:33:50;;;;;;;33.20;19.80;;;6.80;99.90;;;6.61;79.96;99930.53;5111938;27;20648;-69
2023/01/10 08:36:21;;;;;;;33.90;19.50;;;6.80;99.90;;;6.62;80.66;99939.06;5108437;28;20215;-68
2023/01/10 08:38:49;;;;;;;30.57;19.07;;;6.80;99.90;;;6.61;80.07;99940.78;5116002;27;20971;-68
2023/01/10 08:41:18;;;;;;;28.07;18.70;;;6.80;99.90;;;6.59;79.68;99941.59;5120747;27;20211;-69
2023/01/10 08:43:50;;;;;;;31.80;19.23;;;6.80;99.90;;;6.58;80.11;99947.59;5110044;27;20208;-69
2023/01/10 08:46:18;;;;;;;29.33;18.73;;;6.70;99.90;;;6.56;79.95;99950.16;5114016;27;21324;-67
2023/01/10 08:48:49;;;;;;;30.73;18.37;;;6.70;99.90;;;6.57;79.67;99949.28;5107879;27;20227;-68
2023/01/10 08:51:18;;;;;;;32.13;18.27;;;6.80;99.90;;;6.59;79.29;99954.41;5105260;28;20249;-69
2023/01/10 08:53:46;;;;;;;28.63;18.97;;;6.70;99.90;;;6.57;79.59;99959.53;5111395;28;20204;-68
2023/01/10 08:56:14;;;;;;;31.87;18.30;;;6.70;99.90;;;6.56;79.75;99972.34;5114449;27;20215;-69
2023/01/10 08:58:43;;;;;;;30.60;18.37;;;6.70;99.90;;;6.53;80.05;99979.16;5113622;27;20328;-69
2023/01/10 09:01:13;;;;;;;28.40;17.83;;;6.70;99.90;;;6.54;80.08;99980.00;5106812;27;20255;-69
2023/01/10 09:03:41;;;;;;;39.17;22.80;;;6.70;99.90;;;6.58;79.86;99986.84;5108005;28;20544;-69
2023/01/10 09:06:10;;;;;;;32.13;18.97;;;6.70;99.90;;;6.61;79.29;99986.00;5115614;27;20233;-68
2023/01/10 09:08:38;;;;;;;30.23;19.07;;;6.70;99.90;;;6.60;79.63;99977.47;5104434;28;20261;-68
2023/01/10 09:11:07;;;;;;;32.23;18.53;;;6.70;99.90;;;6.62;79.75;99983.44;5117384;27;20206;-69
2023/01/10 09:13:36;;;;;;;34.40;19.27;;;6.80;99.90;;;6.62;78.96;99983.44;5109051;28;20620;-69
2023/01/10 09:16:05;;;;;;;34.43;19.20;;;6.70;99.90;;;6.63;78.82;99980.03;5109123;27;20208;-71
2023/01/10 09:18:35;;;;;;;34.27;20.13;;;6.70;99.90;;;6.63;79.14;99989.41;5111417;27;20540;-69
2023/01/10 09:21:04;;;;;;;30.57;18.70;;;6.70;99.90;;;6.63;78.52;99989.41;5105759;28;20270;-67
2023/01/10 09:23:33;;;;;;;30.60;19.23;;;6.70;99.90;;;6.61;79.23;99999.66;5105391;27;20410;-70
2023/01/10 09:26:04;;;;;;;32.07;19.40;;;6.70;99.90;;;6.63;79.31;100000.53;5106633;28;20204;-68
2023/01/10 09:28:32;;;;;;;34.50;19.70;;;6.80;99.90;;;6.65;78.65;100001.38;5114622;27;20253;-70
2023/01/10 09:31:03;;;;;;;31.30;18.77;;;6.80;99.90;;;6.67;79.01;99997.13;5108577;27;20204;-68
2023/01/10 09:33:31;;;;;;;35.03;18.53;;;6.80;99.90;;;6.68;79.29;100003.94;5111874;27;20203;-71
2023/01/10 09:36:14;;;;;;;32.60;18.23;;;6.80;99.90;;;6.70;78.74;99996.25;5114440;27;20731;-66
2023/01/10 09:38:43;;;;;;;31.20;18.47;;;6.80;99.90;;;6.69;78.67;99990.28;5110964;27;20249;-68
2023/01/10 09:41:52;;;;;;;33.77;20.13;;;6.90;99.90;;;6.71;78.92;99993.72;5114229;27;20247;-70
2023/01/10 09:44:30;;;;;;;28.57;17.47;;;6.90;99.90;;;6.72;78.79;99992.88;5076827;28;20227;-69
2023/01/10 09:47:08;;;;;;;30.23;17.83;;;6.90;99.90;;;6.72;78.55;100000.53;5111387;27;20256;-69
2023/01/10 09:50:05;;;;;;;32.90;19.00;;;6.90;99.90;;;6.72;77.82;99997.13;5107560;27;20235;-70
2023/01/10 09:52:39;;;;;;;30.73;18.20;;;6.90;99.90;;;6.75;78.77;99995.44;5108076;27;20204;-69
2023/01/10 09:55:23;;;;;;;31.50;18.23;;;6.90;99.90;;;6.74;78.40;99991.19;5108374;28;20203;-70
2023/01/10 09:57:55;;;;;;;30.83;18.80;;;6.90;99.90;;;6.73;78.27;99997.13;5101269;28;20199;-69
2023/01/10 10:00:36;;;;;;;31.63;18.30;;;6.90;99.90;;;6.73;78.79;99992.00;5105528;28;20212;-71
2023/01/10 10:03:25;;;;;;;32.03;19.37;;;6.90;99.90;;;6.75;78.50;99987.75;5108599;28;20286;-70
2023/01/10 10:05:54;;;;;;;34.97;19.50;;;6.90;99.90;;;6.75;78.36;99989.47;5095596;28;20279;-70
2023/01/10 10:08:40;;;;;;;34.40;18.57;;;6.90;99.90;;;6.70;78.45;99991.13;5107010;28;20291;-70
2023/01/10 10:11:37;;;;;;;32.93;18.60;;;6.90;99.90;;;6.68;78.88;100003.94;5107792;28;20456;-71
2023/01/10 10:14:19;;;;;;;30.47;18.03;;;6.80;99.90;;;6.65;78.86;99993.69;5109255;28;20616;-71
2023/01/10 10:17:05;;;;;;;33.27;19.43;;;6.90;99.90;;;6.65;78.62;100003.94;5102551;28;20245;-71
2023/01/10 10:19:52;;;;;;;30.43;17.67;;;6.90;99.90;;;6.66;78.65;100003.06;5108059;28;20278;-69
2023/01/10 10:22:34;;;;;;;31.27;18.67;;;6.90;99.90;;;6.69;78.94;99999.69;5109093;28;20256;-69
2023/01/10 10:25:19;;;;;;;28.70;17.57;;;6.80;99.90;;;6.68;78.98;100001.38;5108409;28;20241;-69
2023/01/10 10:28:06;;;;;;;34.67;19.80;;;6.90;99.90;;;6.75;78.34;100005.69;5107015;28;20555;-69
2023/01/10 10:30:50;;;;;;;29.73;18.00;;;6.90;99.90;;;6.77;78.60;100008.22;5106954;28;20281;-71
2023/01/10 10:33:41;;;;;;;28.50;17.43;;;6.90;99.90;;;6.81;77.91;100011.66;5108621;28;20245;-69
2023/01/10 10:36:15;;;;;;;29.50;17.43;;;7.00;99.90;;;6.84;77.97;100016.81;5116081;27;20252;-70
2023/01/10 10:38:48;;;;;;;33.33;20.07;;;7.00;99.90;;;6.86;78.26;100020.22;5109563;27;20707;-70
2023/01/10 10:41:30;;;;;;;36.37;19.90;;;7.00;99.90;;;6.85;78.26;100018.50;5125502;27;20199;-71
2023/01/10 10:44:03;;;;;;;32.60;18.77;;;7.00;99.90;;;6.83;78.20;100017.66;5112655;27;20249;-71
2023/01/10 10:46:32;;;;;;;30.80;18.67;;;7.00;99.90;;;6.83;78.19;100017.66;5110291;27;20988;-69